M I D A S
Marine Information and Data Acquisition System
Tripno 596 of the Zeeleeuw from 2003-09-23 06:59:19 to 2003-09-23 12:19:17
Back to CruiseResearch ActivitiesStationsMapUnderway DataData graphs

EquipmentUnitsComments
TimeDGPSUTC
LatitudeDGPSDM.mWGS84
LongitudeDGPSDM.mWGS84
SpeedMeteo Stationm/sRelative wind speed
DirectionMeteo StationdegRelative wind direction
TemperatureMeteo Stationdeg CelciusAir temperature
PressureMeteo StationPaAtmospheric pressure
HumidityMeteo Station%Relative humidity
Missing or incorrect values are displayed as -999
Metereological data collected by the RV Zeeleeuw from 2003-09-23 06:59:19 to 2003-09-23 12:19:17
Time Latitude Longitude Speed Direction Temperature Pressure Humidity
2003-09-23 07:00 51°13.72 2°55.75 7 11 13.8 101280 55
2003-09-23 07:01 51°13.8 2°55.66 10 5 13.8 101290 57
2003-09-23 07:02 51°13.88 2°55.6 8.9 357 13.8 101290 58
2003-09-23 07:03 51°13.96 2°55.54 10 345 13.8 101290 59
2003-09-23 07:04 51°14.05 2°55.48 13.1 348 13.9 101260 59
2003-09-23 07:05 51°14.15 2°55.4 12.6 355 13.9 101270 62
2003-09-23 07:06 51°14.26 2°55.27 15.1 3 13.9 101270 60
2003-09-23 07:07 51°14.36 2°55.08 15.2 359 13.9 101270 60
2003-09-23 07:08 51°14.44 2°54.85 14.9 13 13.8 101280 58
2003-09-23 07:09 51°14.44 2°54.57 13.8 35 13.8 101270 59
2003-09-23 07:10 51°14.37 2°54.28 15 49 13.8 101270 58
2003-09-23 07:11 51°14.27 2°53.97 14.9 35 13.8 101270 63
2003-09-23 07:12 51°14.16 2°53.68 15.4 53 13.8 101280 61
2003-09-23 07:13 51°14.05 2°53.35 14.8 44 13.8 101280 60
2003-09-23 07:14 51°13.94 2°53.02 14.3 39 13.8 101260 62
2003-09-23 07:15 51°13.83 2°52.68 14.7 49 13.7 101290 59
2003-09-23 07:16 51°13.71 2°52.35 15.7 38 13.7 101300 57
2003-09-23 07:17 51°13.6 2°52.02 14.7 52 13.7 101300 58
2003-09-23 07:18 51°13.49 2°51.69 15.2 52 13.7 101290 61
2003-09-23 07:19 51°13.37 2°51.36 14 37 13.7 101280 60
2003-09-23 07:20 51°13.26 2°51.03 14.7 48 13.8 101280 62
2003-09-23 07:21 51°13.15 2°50.7 16.5 49 13.7 101290 61
2003-09-23 07:22 51°13.04 2°50.37 16.1 52 13.7 101280 59
2003-09-23 07:23 51°12.92 2°50.04 14.7 64 13.8 101300 63
2003-09-23 07:24 51°12.81 2°49.7 14.5 44 13.8 101280 64
2003-09-23 07:25 51°12.7 2°49.38 15.9 47 13.7 101300 60
2003-09-23 07:26 51°12.58 2°49.06 14.9 60 13.7 101290 63
2003-09-23 07:27 51°12.46 2°48.74 14.8 53 13.7 101290 59
2003-09-23 07:28 51°12.33 2°48.42 13.6 45 13.7 101310 61
2003-09-23 07:29 51°12.2 2°48.11 14.7 44 13.7 101290 62
2003-09-23 07:30 51°12.08 2°47.78 15.7 52 13.7 101310 61
2003-09-23 07:31 51°11.96 2°47.46 14.1 45 13.7 101310 60
2003-09-23 07:32 51°11.83 2°47.14 15 43 13.7 101320 57
2003-09-23 07:33 51°11.75 2°46.8 15.8 43 13.7 101340 62
2003-09-23 07:34 51°11.66 2°46.45 15.9 46 13.7 101320 61
2003-09-23 07:35 51°11.58 2°46.1 16.4 50 13.7 101320 63
2003-09-23 07:36 51°11.49 2°45.76 15.9 41 13.7 101330 62
2003-09-23 07:37 51°11.4 2°45.41 15.3 44 13.7 101330 62
2003-09-23 07:38 51°11.32 2°45.06 15.3 43 13.6 101330 63
2003-09-23 07:39 51°11.23 2°44.71 16.7 47 13.6 101320 63
2003-09-23 07:40 51°11.15 2°44.37 16.2 40 13.6 101340 61
2003-09-23 07:41 51°11.07 2°44.02 16.2 36 13.7 101330 63
2003-09-23 07:42 51°10.98 2°43.68 14.6 38 13.6 101340 62
2003-09-23 07:43 51°10.92 2°43.32 15.6 43 13.8 101340 66
2003-09-23 07:44 51°10.88 2°42.96 16 37 13.7 101330 64
2003-09-23 07:45 51°10.83 2°42.61 16.5 41 13.6 101320 60
2003-09-23 07:46 51°10.78 2°42.26 15.2 41 13.6 101310 62
2003-09-23 07:47 51°10.74 2°41.91 15.5 38 13.7 101340 65
2003-09-23 07:48 51°10.69 2°41.56 15.2 35 13.6 101330 60
2003-09-23 07:49 51°10.64 2°41.21 15.4 40 13.5 101340 62
2003-09-23 07:50 51°10.59 2°40.86 16.7 37 13.5 101340 64
2003-09-23 07:51 51°10.54 2°40.52 15.8 45 13.5 101340 61
2003-09-23 07:52 51°10.5 2°40.17 13.9 36 13.5 101340 59
2003-09-23 07:53 51°10.45 2°39.82 15.6 43 13.5 101350 63
2003-09-23 07:54 51°10.4 2°39.47 14.7 41 13.5 101330 63
2003-09-23 07:55 51°10.35 2°39.12 15.8 33 13.5 101350 60
2003-09-23 07:56 51°10.3 2°38.77 14.8 39 13.6 101350 62
2003-09-23 07:57 51°10.25 2°38.42 14.3 45 13.5 101340 60
2003-09-23 07:58 51°10.21 2°38.07 14.6 35 13.6 101360 67
2003-09-23 07:59 51°10.16 2°37.72 16.1 39 13.5 101350 61
2003-09-23 08:00 51°10.11 2°37.37 14.4 36 13.6 101360 63
2003-09-23 08:01 51°10.07 2°37.03 16.6 43 13.5 101370 64
2003-09-23 08:02 51°10.02 2°36.69 15.8 36 13.5 101360 61
2003-09-23 08:03 51°10.01 2°36.34 16.1 38 13.5 101380 63
2003-09-23 08:04 51°10.09 2°36.02 17 14 13.6 101360 63
2003-09-23 08:05 51°10.24 2°35.78 16 359 13.5 101380 59
2003-09-23 08:06 51°10.43 2°35.67 16 343 13.5 101370 60
2003-09-23 08:07 51°10.64 2°35.71 13.9 331 13.6 101380 60
2003-09-23 08:08 51°10.85 2°35.78 13.3 330 13.5 101390 61
2003-09-23 08:09 51°11.04 2°35.89 13.6 318 13.5 101370 62
2003-09-23 08:10 51°11.17 2°36.17 10.4 288 13.6 101400 63
2003-09-23 08:11 51°11.28 2°36.47 10.9 292 13.6 101400 63
2003-09-23 08:12 51°11.41 2°36.77 11.2 308 13.7 101410 65
2003-09-23 08:13 51°11.53 2°37.06 14.1 303 13.7 101400 63
2003-09-23 08:14 51°11.65 2°37.35 8.8 309 13.6 101410 62
2003-09-23 08:15 51°11.77 2°37.65 11.6 296 13.6 101400 63
2003-09-23 08:16 51°11.9 2°37.94 9.9 290 13.6 101430 64
2003-09-23 08:17 51°12.02 2°38.24 11 303 13.6 101410 66
2003-09-23 08:18 51°12.14 2°38.54 12.5 300 13.5 101410 62
2003-09-23 08:19 51°12.26 2°38.84 9.5 296 13.7 101420 62
2003-09-23 08:20 51°12.39 2°39.13 11.5 301 13.7 101430 62
2003-09-23 08:21 51°12.51 2°39.43 10.6 311 13.7 101420 60
2003-09-23 08:22 51°12.63 2°39.73 9.4 301 13.7 101420 60
2003-09-23 08:23 51°12.76 2°40.03 10.7 289 13.7 101420 61
2003-09-23 08:24 51°12.89 2°40.33 12.7 306 13.8 101420 64
2003-09-23 08:25 51°13.01 2°40.63 9.1 301 13.7 101430 62
2003-09-23 08:26 51°13.13 2°40.93 13 305 13.7 101430 64
2003-09-23 08:27 51°13.25 2°41.22 11 303 13.7 101430 63
2003-09-23 08:28 51°13.37 2°41.51 10.8 284 13.7 101450 64
2003-09-23 08:29 51°13.5 2°41.8 13.3 298 13.7 101440 66
2003-09-23 08:30 51°13.62 2°42.09 12 299 13.8 101420 66
2003-09-23 08:31 51°13.75 2°42.38 11.4 298 13.7 101440 64
2003-09-23 08:32 51°13.87 2°42.68 10.2 293 13.8 101430 65
2003-09-23 08:33 51°14 2°42.97 13.9 295 13.8 101440 66
2003-09-23 08:34 51°14.11 2°43.28 10.8 287 13.8 101430 67
2003-09-23 08:35 51°14.22 2°43.59 11.6 299 13.7 101440 67
2003-09-23 08:36 51°14.33 2°43.91 11.3 301 13.7 101430 66
2003-09-23 08:37 51°14.44 2°44.23 11.8 293 13.9 101420 68
2003-09-23 08:38 51°14.55 2°44.54 13.2 295 13.8 101440 67
2003-09-23 08:39 51°14.66 2°44.86 10.4 288 13.6 101430 64
2003-09-23 08:40 51°14.77 2°45.17 11.1 296 13.6 101450 64
2003-09-23 08:41 51°14.88 2°45.5 10.5 288 13.6 101450 66
2003-09-23 08:42 51°14.97 2°45.83 10.2 295 13.5 101450 62
2003-09-23 08:43 51°15.06 2°46.16 9 298 13.5 101440 63
2003-09-23 08:44 51°15.16 2°46.5 10.5 293 13.5 101470 63
2003-09-23 08:45 51°15.26 2°46.83 10.2 288 13.7 101460 63
2003-09-23 08:46 51°15.35 2°47.16 10.1 293 13.7 101450 62
2003-09-23 08:47 51°15.45 2°47.5 12.5 300 13.8 101460 64
2003-09-23 08:48 51°15.54 2°47.84 15.4 288 13.9 101440 63
2003-09-23 08:49 51°15.63 2°48.17 11.6 290 13.8 101470 61
2003-09-23 08:50 51°15.73 2°48.51 14.1 290 13.8 101460 62
2003-09-23 08:51 51°15.82 2°48.85 12.4 300 13.8 101470 63
2003-09-23 08:52 51°15.92 2°49.18 9.8 292 13.8 101450 63
2003-09-23 08:53 51°16.01 2°49.52 11.2 289 13.7 101470 62
2003-09-23 08:54 51°16.1 2°49.85 11.6 298 13.7 101460 62
2003-09-23 08:55 51°16.19 2°50.19 10.4 298 13.7 101470 63
2003-09-23 08:56 51°16.28 2°50.53 10.5 298 13.7 101470 61
2003-09-23 08:57 51°16.38 2°50.86 11.7 301 13.6 101470 60
2003-09-23 08:58 51°16.51 2°51.16 12.4 308 13.6 101450 60
2003-09-23 08:59 51°16.64 2°51.45 15.1 304 13.7 101440 65
2003-09-23 09:00 51°16.79 2°51.72 13.3 316 13.7 101450 62
2003-09-23 09:01 51°16.93 2°52 15.9 306 13.6 101450 61
2003-09-23 09:02 51°17.11 2°52.18 17.7 320 13.7 101430 60
2003-09-23 09:03 51°17.32 2°52.24 15.3 334 13.6 101450 56
2003-09-23 09:04 51°17.53 2°52.28 16.9 328 13.6 101430 59
2003-09-23 09:05 51°17.73 2°52.32 16.9 327 13.6 101460 60
2003-09-23 09:06 51°17.94 2°52.38 14.3 310 13.5 101440 58
2003-09-23 09:07 51°18.13 2°52.52 14.6 318 13.6 101450 62
2003-09-23 09:08 51°18.29 2°52.75 13.2 290 13.6 101430 60
2003-09-23 09:09 51°18.39 2°53.07 13.1 302 13.8 101480 65
2003-09-23 09:10 51°18.5 2°53.4 13.6 303 13.7 101470 63
2003-09-23 09:11 51°18.6 2°53.72 12.5 285 13.7 101440 60
2003-09-23 09:12 51°18.71 2°54.03 10.8 297 13.7 101490 63
2003-09-23 09:13 51°18.83 2°54.35 13 292 13.7 101460 61
2003-09-23 09:14 51°18.93 2°54.68 11.2 293 13.7 101470 61
2003-09-23 09:15 51°19.03 2°55 12.8 291 13.6 101460 59
2003-09-23 09:16 51°19.13 2°55.32 10.1 297 13.7 101480 61
2003-09-23 09:17 51°19.24 2°55.65 11.4 305 13.7 101480 58
2003-09-23 09:18 51°19.33 2°55.98 10.8 301 13.7 101480 61
2003-09-23 09:19 51°19.43 2°56.32 16 293 13.8 101480 60
2003-09-23 09:20 51°19.53 2°56.65 12.4 287 13.7 101480 59
2003-09-23 09:21 51°19.63 2°56.99 9.2 296 13.6 101510 57
2003-09-23 09:22 51°19.73 2°57.33 10.7 296 13.7 101490 61
2003-09-23 09:23 51°19.83 2°57.66 9.9 289 13.8 101490 64
2003-09-23 09:24 51°19.92 2°58.01 10 283 13.7 101500 63
2003-09-23 09:25 51°20 2°58.36 14.7 297 13.8 101510 65
2003-09-23 09:26 51°20.09 2°58.7 14.7 286 13.8 101490 63
2003-09-23 09:27 51°20.18 2°59.05 11.7 283 13.7 101490 63
2003-09-23 09:28 51°20.26 2°59.41 12.2 287 13.6 101490 63
2003-09-23 09:29 51°20.35 2°59.76 12.9 294 13.6 101500 62
2003-09-23 09:30 51°20.42 3°0.12 13.4 282 13.6 101490 59
2003-09-23 09:31 51°20.51 3°0.47 7.3 285 13.5 101520 60
2003-09-23 09:32 51°20.59 3°0.83 12.6 296 13.6 101520 63
2003-09-23 09:33 51°20.67 3°1.19 12.5 290 13.5 101500 61
2003-09-23 09:34 51°20.75 3°1.54 12.7 290 13.5 101500 61
2003-09-23 09:35 51°20.83 3°1.9 9 294 13.4 101510 61
2003-09-23 09:36 51°20.91 3°2.26 11.5 288 13.4 101510 62
2003-09-23 09:37 51°21 3°2.61 7.8 294 13.4 101510 60
2003-09-23 09:38 51°21.09 3°2.97 12.3 292 13.4 101510 62
2003-09-23 09:39 51°21.18 3°3.33 10.2 284 13.5 101510 60
2003-09-23 09:40 51°21.27 3°3.68 13.2 294 13.6 101520 62
2003-09-23 09:41 51°21.35 3°4.04 10.2 289 13.6 101500 59
2003-09-23 09:42 51°21.44 3°4.39 10 301 13.6 101510 59
2003-09-23 09:43 51°21.53 3°4.74 10 302 13.6 101530 59
2003-09-23 09:44 51°21.62 3°5.1 11.1 293 13.7 101510 58
2003-09-23 09:45 51°21.71 3°5.45 10.6 292 13.7 101520 58
2003-09-23 09:46 51°21.8 3°5.81 11.4 290 13.7 101510 55
2003-09-23 09:47 51°21.89 3°6.17 12.9 297 13.8 101530 56
2003-09-23 09:48 51°21.98 3°6.53 11.4 306 13.9 101540 61
2003-09-23 09:49 51°22.07 3°6.89 8.6 298 13.8 101520 54
2003-09-23 09:50 51°22.16 3°7.26 13.4 290 13.8 101530 56
2003-09-23 09:51 51°22.25 3°7.62 12 293 13.9 101540 58
2003-09-23 09:52 51°22.34 3°7.99 9.2 286 13.8 101530 60
2003-09-23 09:53 51°22.42 3°8.36 13.4 289 13.7 101530 56
2003-09-23 09:54 51°22.51 3°8.73 10.2 290 13.7 101530 55
2003-09-23 09:55 51°22.57 3°9.11 11.6 279 13.7 101540 54
2003-09-23 09:56 51°22.64 3°9.49 9.8 276 13.7 101550 55
2003-09-23 09:57 51°22.7 3°9.89 7.4 263 13.7 101540 54
2003-09-23 09:58 51°22.74 3°10.27 9.2 270 13.8 101550 57
2003-09-23 09:59 51°22.78 3°10.66 8.3 284 13.9 101550 58
2003-09-23 10:00 51°22.82 3°11.06 10.7 273 13.9 101550 58
2003-09-23 10:01 51°22.85 3°11.45 11 281 13.8 101550 55
2003-09-23 10:02 51°22.89 3°11.84 9.2 287 13.9 101540 53
2003-09-23 10:03 51°22.95 3°12.23 9 301 13.9 101540 51
2003-09-23 10:04 51°23.06 3°12.6 12.8 302 14 101530 54
2003-09-23 10:05 51°23.16 3°12.96 11.9 304 14 101510 56
2003-09-23 10:06 51°23.29 3°13.3 10.3 296 13.9 101530 56
2003-09-23 10:07 51°23.42 3°13.64 12 305 13.8 101530 55
2003-09-23 10:08 51°23.55 3°13.97 13.3 232 13.9 101530 57
2003-09-23 10:09 51°23.69 3°14.28 11.2 315 13.8 101540 53
2003-09-23 10:10 51°23.89 3°14.47 16.6 328 13.9 101520 56
2003-09-23 10:11 51°24.1 3°14.55 14.8 345 13.8 101520 53
2003-09-23 10:12 51°24.31 3°14.51 16.2 347 13.8 101500 55
2003-09-23 10:13 51°24.49 3°14.4 13.5 3 13.7 101520 49
2003-09-23 10:14 51°24.57 3°14.14 16.9 31 13.7 101550 54
2003-09-23 10:15 51°24.59 3°13.84 14.7 33 13.6 101500 52
2003-09-23 10:16 51°24.59 3°13.53 16 37 13.6 101500 53
2003-09-23 10:17 51°24.57 3°13.23 16.2 42 13.5 101530 54
2003-09-23 10:18 51°24.55 3°12.93 16.7 36 13.5 101490 54
2003-09-23 10:19 51°24.52 3°12.64 14.1 41 13.4 101520 54
2003-09-23 10:20 51°24.48 3°12.35 13.8 44 13.4 101550 58
2003-09-23 10:21 51°24.44 3°12.06 16 42 13.5 101540 58
2003-09-23 10:22 51°24.4 3°11.78 15.5 45 13.5 101530 56
2003-09-23 10:23 51°24.36 3°11.49 16.4 39 13.4 101540 50
2003-09-23 10:24 51°24.32 3°11.2 13.9 47 13.3 101550 53
2003-09-23 10:25 51°24.28 3°10.91 14.5 37 13.5 101530 60
2003-09-23 10:26 51°24.24 3°10.62 14.5 39 13.5 101530 59
2003-09-23 10:27 51°24.21 3°10.32 13.4 57 13.4 101540 57
2003-09-23 10:28 51°24.18 3°10.02 15 33 13.5 101520 60
2003-09-23 10:29 51°24.15 3°9.73 14.9 37 13.6 101550 54
2003-09-23 10:30 51°24.13 3°9.43 14.7 33 13.6 101580 57
2003-09-23 10:31 51°24.1 3°9.12 14.6 33 13.5 101570 51
2003-09-23 10:32 51°24.09 3°8.82 13.7 27 13.6 101570 53
2003-09-23 10:33 51°24.07 3°8.51 14.6 36 13.6 101560 54
2003-09-23 10:34 51°24.06 3°8.2 17.6 34 13.5 101570 53
2003-09-23 10:35 51°24.06 3°7.89 15.3 41 13.5 101570 50
2003-09-23 10:36 51°24.05 3°7.58 15.6 34 13.5 101550 51
2003-09-23 10:37 51°24.05 3°7.27 16.8 30 13.4 101560 49
2003-09-23 10:38 51°24.06 3°6.96 13.8 34 13.4 101560 51
2003-09-23 10:39 51°24.07 3°6.64 15.6 30 13.4 101570 53
2003-09-23 10:40 51°24.09 3°6.33 16.2 34 13.4 101580 56
2003-09-23 10:41 51°24.1 3°6.01 16.1 34 13.4 101570 55
2003-09-23 10:42 51°24.14 3°5.71 16.8 27 13.4 101560 53
2003-09-23 10:43 51°24.2 3°5.41 16.6 28 13.4 101570 53
2003-09-23 10:44 51°24.25 3°5.1 18.3 23 13.5 101570 54
2003-09-23 10:45 51°24.31 3°4.8 13.4 17 13.5 101590 54
2003-09-23 10:46 51°24.36 3°4.5 15.9 16 13.5 101570 54
2003-09-23 10:47 51°24.42 3°4.2 16 31 13.5 101590 51
2003-09-23 10:48 51°24.48 3°3.9 15.4 21 13.5 101600 55
2003-09-23 10:49 51°24.53 3°3.6 17.7 23 13.6 101590 52
2003-09-23 10:50 51°24.58 3°3.3 15.7 36 13.5 101580 51
2003-09-23 10:51 51°24.51 3°3.01 15.7 51 13.5 101550 56
2003-09-23 10:52 51°24.44 3°2.72 11.4 42 13.3 101600 52
2003-09-23 10:53 51°24.3 3°2.48 12.2 71 13.3 101590 53
2003-09-23 10:54 51°24.16 3°2.25 15.7 59 13.4 101600 56
2003-09-23 10:55 51°24.01 3°2.02 12.8 54 13.3 101590 50
2003-09-23 10:56 51°23.87 3°1.79 11.7 68 13.3 101610 53
2003-09-23 10:57 51°23.73 3°1.55 9.6 71 13.3 101600 51
2003-09-23 10:58 51°23.59 3°1.32 12.5 69 13.4 101610 58
2003-09-23 10:59 51°23.45 3°1.08 13.7 57 13.5 101590 61
2003-09-23 11:00 51°23.31 3°0.84 13.2 51 13.4 101600 56
2003-09-23 11:01 51°23.17 3°0.61 14.4 61 13.4 101600 56
2003-09-23 11:02 51°23.03 3°0.37 13.8 41 13.4 101610 56
2003-09-23 11:03 51°22.9 3°0.13 12.7 60 13.3 101610 51
2003-09-23 11:04 51°22.75 2°59.91 11 66 13.3 101620 54
2003-09-23 11:05 51°22.61 2°59.69 13.5 57 13.5 101630 60
2003-09-23 11:06 51°22.43 2°59.45 11.1 78 13.3 101600 54
2003-09-23 11:07 51°22.27 2°59.25 11.9 66 13.3 101630 58
2003-09-23 11:08 51°22.11 2°59.04 10.4 75 13.2 101640 53
2003-09-23 11:09 51°21.96 2°58.84 12.7 70 13.3 101620 57
2003-09-23 11:10 51°21.81 2°58.63 12.6 79 13.3 101640 57
2003-09-23 11:11 51°21.66 2°58.42 12.5 86 13.3 101630 61
2003-09-23 11:12 51°21.49 2°58.19 13.7 69 13.3 101620 58
2003-09-23 11:13 51°21.34 2°57.99 15 60 13.4 101620 58
2003-09-23 11:14 51°21.19 2°57.79 12.4 71 13.4 101610 58
2003-09-23 11:15 51°21.03 2°57.58 10.9 70 13.3 101630 56
2003-09-23 11:16 51°20.88 2°57.37 13 61 13.3 101630 57
2003-09-23 11:17 51°20.74 2°57.14 12.5 52 13.3 101630 58
2003-09-23 11:18 51°20.58 2°56.9 11.7 78 13.2 101630 57
2003-09-23 11:19 51°20.44 2°56.68 13.8 81 13.3 101650 59
2003-09-23 11:20 51°20.3 2°56.45 12.6 57 13.3 101650 59
2003-09-23 11:21 51°20.15 2°56.21 14.4 67 13.3 101650 60
2003-09-23 11:22 51°20.02 2°55.99 14 71 13.2 101660 61
2003-09-23 11:23 51°19.87 2°55.73 13.9 54 13.4 101650 61
2003-09-23 11:24 51°19.73 2°55.49 15.5 67 13.3 101640 55
2003-09-23 11:25 51°19.6 2°55.25 11.9 57 13.3 101640 60
2003-09-23 11:26 51°19.46 2°55.01 13 51 13.2 101660 60
2003-09-23 11:27 51°19.31 2°54.76 13.7 55 13.1 101640 56
2003-09-23 11:28 51°19.17 2°54.52 13.7 60 13.2 101650 57
2003-09-23 11:29 51°19.03 2°54.29 11.1 65 13.1 101660 56
2003-09-23 11:30 51°18.9 2°54.05 12.7 77 13.2 101660 56
2003-09-23 11:31 51°18.76 2°53.81 13.8 63 13.3 101660 61
2003-09-23 11:32 51°18.62 2°53.58 13.7 55 13.3 101670 59
2003-09-23 11:33 51°18.49 2°53.35 13.7 63 13.3 101670 59
2003-09-23 11:34 51°18.35 2°53.11 15.2 69 13.2 101660 57
2003-09-23 11:35 51°18.22 2°52.88 13.4 67 13.2 101670 54
2003-09-23 11:36 51°18.07 2°52.66 12.7 88 13.2 101680 58
2003-09-23 11:37 51°17.87 2°52.58 7 79 13.3 101720 57
2003-09-23 11:38 51°17.66 2°52.55 8 99 13.3 101710 57
2003-09-23 11:39 51°17.45 2°52.5 7.7 109 13.4 101730 59
2003-09-23 11:40 51°17.25 2°52.53 5.3 120 13.4 101720 61
2003-09-23 11:41 51°17.04 2°52.7 6.1 122 13.3 101730 58
2003-09-23 11:42 51°16.82 2°52.87 4.2 114 13.3 101740 56
2003-09-23 11:43 51°16.62 2°53.03 2.9 126 13.4 101740 58
2003-09-23 11:44 51°16.43 2°53.19 3.2 148 13.6 101740 60
2003-09-23 11:45 51°16.23 2°53.36 2 142 13.7 101740 59
2003-09-23 11:46 51°16.03 2°53.52 4.7 110 13.8 101730 60
2003-09-23 11:47 51°15.83 2°53.67 3.6 122 13.8 101740 57
2003-09-23 11:48 51°15.63 2°53.82 3.1 135 13.8 101730 53
2003-09-23 11:49 51°15.43 2°53.97 4 122 13.8 101740 59
2003-09-23 11:50 51°15.26 2°54.11 6.2 130 13.8 101750 59
2003-09-23 11:51 51°15.12 2°54.24 4.5 166 13.6 101750 55
2003-09-23 11:52 51°15.02 2°54.4 3.8 167 13.6 101750 57
2003-09-23 11:53 51°14.94 2°54.54 4 183 13.6 101750 58
2003-09-23 11:54 51°14.85 2°54.67 7.7 169 13.7 101750 53
2003-09-23 11:55 51°14.78 2°54.76 7.4 169 13.6 101760 51
2003-09-23 11:56 51°14.73 2°54.82 7 138 13.5 101760 56
2003-09-23 11:57 51°14.68 2°54.83 6.5 129 13.5 101750 56
2003-09-23 11:58 51°14.64 2°54.85 11.8 133 13.6 101750 61
2003-09-23 11:59 51°14.6 2°54.87 9.3 131 13.5 101750 57
2003-09-23 12:00 51°14.5 2°54.93 5 144 13.3 101770 55
2003-09-23 12:01 51°14.36 2°55.1 4.9 224 13.3 101780 59
2003-09-23 12:02 51°14.24 2°55.31 2.3 158 13.3 101780 59
2003-09-23 12:03 51°14.11 2°55.42 4.3 186 13.3 101780 60
2003-09-23 12:04 51°14.02 2°55.49 5.9 148 13.3 101770 59
2003-09-23 12:05 51°13.94 2°55.55 3.3 116 13.4 101770 57
2003-09-23 12:06 51°13.86 2°55.61 7 163 13.5 101780 54
2003-09-23 12:07 51°13.78 2°55.67 3.8 158 13.5 101780 53
2003-09-23 12:08 51°13.72 2°55.77 5.4 206 13.6 101790 53
2003-09-23 12:09 51°13.67 2°55.88 6.7 211 13.5 101800 52
2003-09-23 12:10 51°13.63 2°55.99 4.1 235 13.4 101800 52
2003-09-23 12:11 51°13.61 2°56.07 6.2 211 13.5 101790 55
2003-09-23 12:12 51°13.6 2°56.1 4.2 208 13.6 101790 52
2003-09-23 12:13 51°13.6 2°56.11 8.8 209 13.6 101790 52
2003-09-23 12:14 51°13.6 2°56.11 6.6 206 13.7 101800 53
2003-09-23 12:15 51°13.6 2°56.11 6.5 201 13.6 101790 53
2003-09-23 12:16 51°13.6 2°56.11 5.5 203 13.7 101790 53
2003-09-23 12:17 51°13.6 2°56.11 9.4 220 14 101800 54
2003-09-23 12:18 51°13.6 2°56.11 7.9 211 14 101800 51